createdAt,value
2019-04-26T00:04:49.321Z,27.47
2019-04-26T00:09:55.956Z,21.03
2019-04-26T00:15:21.234Z,20.27
2019-04-26T00:20:26.732Z,25.67
2019-04-26T00:25:31.895Z,23.47
2019-04-26T00:30:36.875Z,20.90
2019-04-26T00:35:47.879Z,25.27
2019-04-26T00:40:49.914Z,27.37
2019-04-26T00:45:56.655Z,25.53
2019-04-26T00:51:04.064Z,23.87
2019-04-26T00:56:10.063Z,31.13
2019-04-26T01:01:16.819Z,22.23
2019-04-26T01:06:23.454Z,29.03
2019-04-26T01:11:28.478Z,22.57
2019-04-26T01:16:33.596Z,25.27
2019-04-26T01:21:41.656Z,24.83
2019-04-26T01:26:49.056Z,22.77
2019-04-26T01:31:59.928Z,20.43
2019-04-26T01:37:05.219Z,25.37
2019-04-26T01:42:12.096Z,20.63
2019-04-26T01:47:17.659Z,24.13
2019-04-26T01:52:24.039Z,21.23
2019-04-26T01:57:31.569Z,25.07
2019-04-26T02:02:57.407Z,19.97
2019-04-26T02:08:02.609Z,23.53
2019-04-26T02:13:07.768Z,26.33
2019-04-26T02:18:12.963Z,25.53
2019-04-26T02:23:35.949Z,20.07
2019-04-26T02:28:41.145Z,19.33
2019-04-26T02:33:46.111Z,16.67
2019-04-26T02:38:53.300Z,21.90
2019-04-26T02:44:01.435Z,22.23
2019-04-26T02:49:11.704Z,24.43
2019-04-26T02:54:27.888Z,20.23
2019-04-26T02:59:40.772Z,23.17
2019-04-26T03:04:48.436Z,22.00
2019-04-26T03:09:54.446Z,22.53
2019-04-26T03:15:13.831Z,22.53
2019-04-26T03:20:20.326Z,29.27
2019-04-26T03:25:35.209Z,24.23
2019-04-26T03:30:53.003Z,18.00
2019-04-26T03:36:14.396Z,18.57
2019-04-26T03:41:41.045Z,20.20
2019-04-26T03:46:52.093Z,22.00
2019-04-26T03:52:18.454Z,27.53
2019-04-26T03:57:44.306Z,23.90
2019-04-26T04:03:11.869Z,24.53
2019-04-26T04:08:22.651Z,23.07
2019-04-26T04:13:50.483Z,33.47
2019-04-26T04:19:01.218Z,25.37
2019-04-26T04:24:09.613Z,19.30
2019-04-26T04:29:42.974Z,22.70
2019-04-26T04:34:47.536Z,29.57
2019-04-26T04:40:29.271Z,30.83
2019-04-26T04:45:59.750Z,30.97
2019-04-26T04:51:23.015Z,29.70
2019-04-26T04:56:46.140Z,42.33
2019-04-26T05:02:07.716Z,45.70
2019-04-26T05:07:30.675Z,61.27
2019-04-26T05:12:38.708Z,71.97
2019-04-26T05:17:58.903Z,52.43
2019-04-26T05:23:18.119Z,70.47
2019-04-26T05:28:42.795Z,60.37
2019-04-26T05:34:13.817Z,61.40
2019-04-26T05:39:27.595Z,92.27
2019-04-26T05:44:43.146Z,54.80
2019-04-26T05:50:36.865Z,48.50
2019-04-26T05:56:21.346Z,45.67
2019-04-26T06:02:01.142Z,29.83
2019-04-26T06:07:25.712Z,29.80
2019-04-26T06:12:37.917Z,45.77
2019-04-26T06:18:11.476Z,30.17
2019-04-26T06:23:25.284Z,28.30
2019-04-26T06:28:56.366Z,31.57
2019-04-26T06:34:06.950Z,29.17
2019-04-26T06:39:22.084Z,28.50
2019-04-26T06:44:31.802Z,26.60
2019-04-26T06:49:59.108Z,29.13
2019-04-26T06:55:14.792Z,26.90
2019-04-26T07:00:23.966Z,33.83
2019-04-26T07:05:32.022Z,32.83
2019-04-26T07:10:52.262Z,21.33
2019-04-26T07:16:22.842Z,34.67
2019-04-26T07:22:16.236Z,23.97
2019-04-26T07:27:39.210Z,26.50
2019-04-26T07:32:53.028Z,23.73
2019-04-26T07:38:28.856Z,53.30
2019-04-26T07:43:41.586Z,14.93
2019-04-26T07:49:10.183Z,25.20
2019-04-26T07:54:33.006Z,21.20
2019-04-26T08:00:08.796Z,17.30
2019-04-26T08:05:22.276Z,24.93
2019-04-26T08:10:40.727Z,26.37
2019-04-26T08:15:56.427Z,24.20
2019-04-26T08:21:10.026Z,24.03
2019-04-26T08:26:13.875Z,16.10
2019-04-26T08:31:24.346Z,15.77
2019-04-26T08:36:32.733Z,19.93
2019-04-26T08:41:40.241Z,21.53
2019-04-26T08:46:51.765Z,19.90
2019-04-26T08:51:59.729Z,10.13
2019-04-26T08:57:08.601Z,19.23
2019-04-26T09:02:24.134Z,16.65
2019-04-26T09:07:36.283Z,14.75
2019-04-26T09:12:42.601Z,15.83
2019-04-26T09:17:47.801Z,18.30
2019-04-26T09:23:06.796Z,19.70
2019-04-26T09:28:19.148Z,12.23
2019-04-26T09:33:41.031Z,31.48
2019-04-26T09:38:46.087Z,17.12
2019-04-26T09:43:54.922Z,13.22
2019-04-26T09:49:03.016Z,15.55
2019-04-26T09:54:08.964Z,17.40
2019-04-26T09:59:13.999Z,19.37
2019-04-26T10:04:19.147Z,11.60
2019-04-26T10:09:26.016Z,18.42
2019-04-26T10:14:39.134Z,14.75
2019-04-26T10:19:45.809Z,10.03
2019-04-26T10:24:50.995Z,16.70
2019-04-26T10:30:07.180Z,14.85
2019-04-26T10:35:02.835Z,10.38
2019-04-26T10:40:09.234Z,32.00
2019-04-26T10:45:16.344Z,13.60
2019-04-26T10:50:22.082Z,13.62
2019-04-26T10:55:28.887Z,15.63
2019-04-26T11:00:38.595Z,7.95
2019-04-26T11:05:44.859Z,16.60
2019-04-26T11:10:50.186Z,15.45
2019-04-26T11:15:55.281Z,21.45
2019-04-26T11:21:00.326Z,11.33
2019-04-26T11:26:05.626Z,12.93
2019-04-26T11:31:10.637Z,15.28
2019-04-26T11:36:16.683Z,13.18
2019-04-26T11:41:21.825Z,12.82
2019-04-26T11:46:29.134Z,15.28
2019-04-26T11:51:33.467Z,7.25
2019-04-26T11:56:38.834Z,24.12
2019-04-26T12:01:44.254Z,9.50
2019-04-26T12:06:56.864Z,36.17
2019-04-26T12:12:04.947Z,12.80
2019-04-26T12:17:09.691Z,14.03
2019-04-26T12:22:14.810Z,13.03
2019-04-26T12:27:19.845Z,12.10
2019-04-26T12:32:24.912Z,11.83
2019-04-26T12:37:31.034Z,12.73
2019-04-26T12:42:36.123Z,20.62
2019-04-26T12:47:45.658Z,9.63
2019-04-26T12:52:51.524Z,16.48
2019-04-26T12:57:57.575Z,11.12
2019-04-26T13:03:04.342Z,9.73
2019-04-26T13:08:09.432Z,14.20
2019-04-26T13:13:16.192Z,10.82
2019-04-26T13:18:21.338Z,6.90
2019-04-26T13:23:29.957Z,15.68
2019-04-26T13:28:33.083Z,12.07
2019-04-26T13:33:38.131Z,9.20
2019-04-26T13:38:44.999Z,4.97
2019-04-26T13:43:49.911Z,15.85
2019-04-26T13:49:14.353Z,12.05
2019-04-26T13:54:21.175Z,17.55
2019-04-26T13:59:28.145Z,6.40
2019-04-26T14:04:32.646Z,8.58
2019-04-26T14:09:37.611Z,6.28
2019-04-26T14:14:42.624Z,7.30
2019-04-26T14:19:49.455Z,10.05
2019-04-26T14:24:57.051Z,6.30
2019-04-26T14:30:06.480Z,8.30
2019-04-26T14:35:11.528Z,8.80
2019-04-26T14:40:17.715Z,13.00
2019-04-26T14:45:24.165Z,31.95
2019-04-26T14:50:32.060Z,11.30
2019-04-26T14:55:37.207Z,13.00
2019-04-26T15:00:44.076Z,8.53
2019-04-26T15:05:59.810Z,16.62
2019-04-26T15:11:04.902Z,10.15
2019-04-26T15:16:11.818Z,6.45
2019-04-26T15:21:16.552Z,14.68
2019-04-26T15:26:24.405Z,10.38
2019-04-26T15:31:28.451Z,9.08
2019-04-26T15:36:33.459Z,8.93
2019-04-26T15:41:40.219Z,10.50
2019-04-26T15:46:48.633Z,5.42
2019-04-26T15:51:56.376Z,7.25
2019-04-26T15:57:02.110Z,12.70
2019-04-26T16:02:07.742Z,32.67
2019-04-26T16:07:16.677Z,4.78
2019-04-26T16:12:20.316Z,13.10
2019-04-26T16:17:26.156Z,11.95
2019-04-26T16:22:33.153Z,14.38
2019-04-26T16:27:37.995Z,26.52
2019-04-26T16:32:54.094Z,16.75
2019-04-26T16:38:00.126Z,11.70
2019-04-26T16:43:05.430Z,17.07
2019-04-26T16:48:10.888Z,8.60
2019-04-26T16:53:37.846Z,17.75
2019-04-26T16:58:24.655Z,20.62
2019-04-26T17:03:29.246Z,23.52
2019-04-26T17:08:34.350Z,21.87
2019-04-26T17:13:49.189Z,9.60
2019-04-26T17:18:46.219Z,15.65
2019-04-26T17:24:05.872Z,7.25
2019-04-26T17:29:08.942Z,13.10
2019-04-26T17:34:14.231Z,11.10
2019-04-26T17:39:19.351Z,13.95
2019-04-26T17:44:26.414Z,9.40
2019-04-26T17:49:34.531Z,12.43
2019-04-26T17:54:48.978Z,20.48
2019-04-26T17:59:47.760Z,22.40
2019-04-26T18:04:58.893Z,13.30
2019-04-26T18:10:04.355Z,18.52
2019-04-26T18:15:09.554Z,12.47
2019-04-26T18:20:29.621Z,11.35
2019-04-26T18:25:34.751Z,16.95
2019-04-26T18:30:40.305Z,14.28
2019-04-26T18:35:49.326Z,15.00
2019-04-26T18:41:00.978Z,17.12
2019-04-26T18:46:03.434Z,24.80
2019-04-26T18:51:11.151Z,12.58
2019-04-26T18:56:15.308Z,9.65
2019-04-26T19:01:20.358Z,12.05
2019-04-26T19:06:31.610Z,18.20
2019-04-26T19:11:34.209Z,16.48
2019-04-26T19:16:59.284Z,16.97
2019-04-26T19:22:09.387Z,16.48
2019-04-26T19:27:15.763Z,23.45
2019-04-26T19:32:21.857Z,19.70
2019-04-26T19:37:30.435Z,14.17
2019-04-26T19:42:34.367Z,16.50
2019-04-26T19:47:43.975Z,16.33
2019-04-26T19:52:49.445Z,16.10
2019-04-26T19:58:05.187Z,12.47
2019-04-26T20:03:13.471Z,10.33
2019-04-26T20:08:17.183Z,17.43
2019-04-26T20:13:22.306Z,14.00
2019-04-26T20:18:27.418Z,7.60
2019-04-26T20:23:33.811Z,16.93
2019-04-26T20:28:38.967Z,15.70
2019-04-26T20:33:44.083Z,9.90
2019-04-26T20:38:49.190Z,13.57
2019-04-26T20:44:04.965Z,10.43
2019-04-26T20:49:01.432Z,11.37
2019-04-26T20:54:10.718Z,16.97
2019-04-26T20:59:16.631Z,8.93
2019-04-26T21:04:34.891Z,11.00
2019-04-26T21:09:28.954Z,7.43
2019-04-26T21:14:37.324Z,10.37
2019-04-26T21:19:41.711Z,14.00
2019-04-26T21:25:04.726Z,10.97
2019-04-26T21:30:13.517Z,12.37
2019-04-26T21:35:25.028Z,9.67
2019-04-26T21:40:31.583Z,11.30
2019-04-26T21:45:36.698Z,18.83
2019-04-26T21:50:44.362Z,11.73
2019-04-26T21:55:49.536Z,11.23
2019-04-26T22:01:11.065Z,13.13
2019-04-26T22:06:20.007Z,19.70
2019-04-26T22:11:24.048Z,12.13
2019-04-26T22:16:37.970Z,11.77
2019-04-26T22:22:05.784Z,6.53
2019-04-26T22:27:07.239Z,8.43
2019-04-26T22:32:15.936Z,11.37
2019-04-26T22:37:29.629Z,8.83
2019-04-26T22:42:27.326Z,19.00
2019-04-26T22:47:40.689Z,17.27
2019-04-26T22:52:44.492Z,9.63
2019-04-26T22:57:49.611Z,20.23
2019-04-26T23:02:57.999Z,11.90
2019-04-26T23:08:01.096Z,13.83
2019-04-26T23:13:08.177Z,11.00
2019-04-26T23:18:17.682Z,9.90
2019-04-26T23:23:23.655Z,11.23
2019-04-26T23:28:34.062Z,13.47
2019-04-26T23:33:35.247Z,10.03
2019-04-26T23:38:40.282Z,9.90
2019-04-26T23:43:45.271Z,12.20
2019-04-26T23:48:50.266Z,12.07
2019-04-26T23:53:57.797Z,18.40
2019-04-26T23:59:03.580Z,18.93
